Time;durP1;ratioP1;P1;durP2;ratioP2;P2;SDS_P1;SDS_P2;PMS_P1;PMS_P2;Temp;Humidity;BMP_temperature;BMP_pressure;BME280_temperature;BME280_humidity;BME280_pressure;Samples;Min_cycle;Max_cycle;Signal;HPM_P1;HPM_P2
2023/08/16 00:00:38;;;;;;;0.20;0.20;;;;;;;-144.31;100.00;58022.63;5053088;28;20078;-61
2023/08/16 00:04:02;;;;;;;0.20;0.20;;;;;;;-144.31;100.00;58022.63;5051083;28;20030;-61
2023/08/16 00:07:26;;;;;;;0.20;0.20;;;;;;;-144.31;100.00;58022.63;5055276;28;20072;-61
2023/08/16 00:10:50;;;;;;;0.20;0.20;;;;;;;-144.31;100.00;58022.63;5067812;28;20469;-61
2023/08/16 00:14:14;;;;;;;0.20;0.20;;;;;;;-144.31;100.00;58022.63;5054791;28;20100;-61
2023/08/16 00:17:38;;;;;;;0.20;0.20;;;;;;;-144.31;100.00;58022.63;5051260;28;20041;-61
2023/08/16 00:21:02;;;;;;;0.20;0.20;;;;;;;-144.31;100.00;58022.63;5052052;28;20060;-61
2023/08/16 00:24:26;;;;;;;0.20;0.20;;;;;;;-144.31;100.00;58022.63;5049442;28;20116;-61
2023/08/16 00:27:50;;;;;;;0.20;0.20;;;;;;;-144.31;100.00;58022.63;5052232;28;20052;-61
2023/08/16 00:31:15;;;;;;;0.17;0.17;;;;;;;-144.31;100.00;58022.63;5054524;28;20048;-61
2023/08/16 00:34:39;;;;;;;0.20;0.20;;;;;;;-144.31;100.00;58022.63;5054573;28;20079;-61
2023/08/16 00:38:03;;;;;;;0.20;0.20;;;;;;;-144.31;100.00;58022.63;5058522;28;20123;-61
2023/08/16 00:41:27;;;;;;;0.20;0.20;;;;;;;-144.31;100.00;58022.63;5057017;28;20153;-62
2023/08/16 00:44:51;;;;;;;0.20;0.20;;;;;;;-144.31;100.00;58022.63;5061821;28;20533;-61
2023/08/16 00:48:16;;;;;;;0.20;0.20;;;;;;;-144.31;100.00;58022.63;5064286;28;20050;-61
2023/08/16 00:51:40;;;;;;;0.20;0.20;;;;;;;-144.31;100.00;58022.63;5059723;28;20072;-60
2023/08/16 00:55:06;;;;;;;0.20;0.20;;;;;;;-144.31;100.00;58022.63;5061382;28;20055;-60
2023/08/16 00:58:30;;;;;;;0.20;0.20;;;;;;;-144.31;100.00;58022.63;5056760;28;20521;-59
2023/08/16 01:01:54;;;;;;;0.20;0.20;;;;;;;-144.31;100.00;58022.63;5068053;28;20068;-60
2023/08/16 01:05:19;;;;;;;0.20;0.20;;;;;;;-144.31;100.00;58022.63;5046903;28;20036;-60
2023/08/16 01:08:44;;;;;;;0.20;0.20;;;;;;;-144.31;100.00;58022.63;5055710;28;20041;-61
2023/08/16 01:12:23;;;;;;;0.20;0.20;;;;;;;-144.31;100.00;58022.63;5055161;28;20033;-61
2023/08/16 01:16:07;;;;;;;0.20;0.20;;;;;;;-144.31;100.00;58022.63;5055454;28;20232;-60
2023/08/16 01:19:35;;;;;;;0.20;0.20;;;;;;;-144.31;100.00;58022.63;5055204;28;20051;-60
2023/08/16 01:23:08;;;;;;;0.20;0.20;;;;;;;-144.31;100.00;58022.63;5055200;28;20474;-60
2023/08/16 01:26:47;;;;;;;0.20;0.20;;;;;;;-144.31;100.00;58022.63;5056906;28;20029;-60
2023/08/16 01:30:11;;;;;;;0.20;0.20;;;;;;;-144.31;100.00;58022.63;5062003;28;20438;-60
2023/08/16 01:33:35;;;;;;;0.20;0.20;;;;;;;-144.31;100.00;58022.63;5056453;28;20033;-59
2023/08/16 01:36:59;;;;;;;0.20;0.20;;;;;;;-144.31;100.00;58022.63;5058272;28;20037;-60
2023/08/16 01:40:23;;;;;;;0.20;0.20;;;;;;;-144.31;100.00;58022.63;5055445;28;20064;-60
2023/08/16 01:43:48;;;;;;;0.20;0.20;;;;;;;-144.31;100.00;58022.63;5056240;28;20470;-59
2023/08/16 01:47:13;;;;;;;0.20;0.20;;;;;;;-144.31;100.00;58022.63;5056432;28;20037;-60
2023/08/16 01:50:41;;;;;;;0.20;0.20;;;;;;;-144.31;100.00;58022.63;5055537;28;20028;-60
2023/08/16 01:54:05;;;;;;;0.20;0.20;;;;;;;-144.31;100.00;58022.63;5057296;28;20055;-59
2023/08/16 01:57:30;;;;;;;0.20;0.20;;;;;;;-144.31;100.00;58022.63;5054142;28;20208;-59
2023/08/16 02:00:54;;;;;;;0.20;0.20;;;;;;;-144.31;100.00;58022.63;5055448;28;20072;-61
2023/08/16 02:04:18;;;;;;;0.20;0.20;;;;;;;-144.31;100.00;58022.63;5060347;28;20036;-59
2023/08/16 02:07:42;;;;;;;0.20;0.20;;;;;;;-144.31;100.00;58022.63;5053909;28;20189;-62
2023/08/16 02:11:06;;;;;;;0.20;0.20;;;;;;;-144.31;100.00;58022.63;5062709;28;20466;-62
2023/08/16 02:14:30;;;;;;;0.20;0.20;;;;;;;-144.31;100.00;58022.63;5063211;28;20440;-60
2023/08/16 02:17:54;;;;;;;0.20;0.20;;;;;;;-144.31;100.00;58022.63;5061706;28;20114;-61
2023/08/16 02:21:18;;;;;;;0.20;0.20;;;;;;;-144.31;100.00;58022.63;5061241;28;20044;-62
2023/08/16 02:24:42;;;;;;;0.20;0.20;;;;;;;-144.31;100.00;58022.63;5059517;28;20051;-61
2023/08/16 02:28:06;;;;;;;0.20;0.20;;;;;;;-144.31;100.00;58022.63;5057118;28;20036;-61
2023/08/16 02:31:30;;;;;;;0.20;0.20;;;;;;;-144.31;100.00;58022.63;5073579;28;20040;-61
2023/08/16 02:34:54;;;;;;;0.20;0.20;;;;;;;-144.31;100.00;58022.63;5054792;28;20360;-61
2023/08/16 02:38:18;;;;;;;0.20;0.20;;;;;;;-144.31;100.00;58022.63;5052048;28;20033;-61
2023/08/16 02:41:42;;;;;;;0.20;0.20;;;;;;;-144.31;100.00;58022.63;5056200;28;20033;-61
2023/08/16 02:45:06;;;;;;;0.20;0.20;;;;;;;-144.31;100.00;58022.63;5056417;28;20366;-61
2023/08/16 02:48:30;;;;;;;0.20;0.20;;;;;;;-144.31;100.00;58022.63;5052390;28;20036;-61
2023/08/16 02:51:54;;;;;;;0.20;0.20;;;;;;;-144.31;100.00;58022.63;5059829;28;20131;-61
2023/08/16 02:55:18;;;;;;;0.20;0.20;;;;;;;-144.31;100.00;58022.63;5059294;28;20045;-61
2023/08/16 02:58:45;;;;;;;0.20;0.20;;;;;;;-144.31;100.00;58022.63;5061084;28;20059;-61
2023/08/16 03:02:09;;;;;;;0.20;0.20;;;;;;;-144.31;100.00;58022.63;5060107;28;20151;-61
2023/08/16 03:05:33;;;;;;;0.20;0.20;;;;;;;-144.31;100.00;58022.63;5055824;28;20087;-61
2023/08/16 03:08:57;;;;;;;0.20;0.20;;;;;;;-144.31;100.00;58022.63;5041203;28;20356;-61
2023/08/16 03:12:21;;;;;;;0.20;0.20;;;;;;;-144.31;100.00;58022.63;5050910;28;20063;-61
2023/08/16 03:15:45;;;;;;;0.20;0.20;;;;;;;-144.31;100.00;58022.63;5059664;28;20470;-61
2023/08/16 03:19:10;;;;;;;0.20;0.20;;;;;;;-144.31;100.00;58022.63;5056873;28;20028;-61
2023/08/16 03:22:34;;;;;;;0.20;0.20;;;;;;;-144.31;100.00;58022.63;5056996;28;20024;-61
2023/08/16 03:25:58;;;;;;;0.20;0.20;;;;;;;-144.31;100.00;58022.63;5054555;28;20115;-61
2023/08/16 03:29:22;;;;;;;0.20;0.20;;;;;;;-144.31;100.00;58022.63;5065511;28;20949;-61
2023/08/16 03:32:46;;;;;;;0.22;0.22;;;;;;;-144.31;100.00;58022.63;5055954;28;20498;-61
2023/08/16 03:36:10;;;;;;;0.20;0.20;;;;;;;-144.31;100.00;58022.63;5060625;28;20037;-60
2023/08/16 03:39:34;;;;;;;0.20;0.20;;;;;;;-144.31;100.00;58022.63;5051358;28;20036;-60
2023/08/16 03:42:58;;;;;;;0.20;0.20;;;;;;;-144.31;100.00;58022.63;5057820;28;20119;-60
2023/08/16 03:46:22;;;;;;;0.20;0.20;;;;;;;-144.31;100.00;58022.63;5051824;28;20064;-60
2023/08/16 03:49:46;;;;;;;0.20;0.20;;;;;;;-144.31;100.00;58022.63;5042697;28;20067;-60
2023/08/16 03:53:11;;;;;;;0.20;0.20;;;;;;;-144.31;100.00;58022.63;5052190;28;20044;-60
2023/08/16 03:56:36;;;;;;;0.20;0.20;;;;;;;-144.31;100.00;58022.63;5055010;28;20033;-60
2023/08/16 04:00:00;;;;;;;0.20;0.20;;;;;;;-144.31;100.00;58022.63;5054480;28;20115;-60
2023/08/16 04:03:26;;;;;;;;;;;;;;;-144.31;100.00;58022.63;5053485;28;20159;-60
2023/08/16 04:06:50;;;;;;;0.20;0.20;;;;;;;-144.31;100.00;58022.63;5054675;28;20895;-60
2023/08/16 04:10:14;;;;;;;0.20;0.20;;;;;;;-144.31;100.00;58022.63;5049699;28;20383;-60
2023/08/16 04:13:38;;;;;;;0.20;0.20;;;;;;;-144.31;100.00;58022.63;5054089;28;20032;-60
2023/08/16 04:17:02;;;;;;;0.20;0.20;;;;;;;-144.31;100.00;58022.63;5058489;28;20122;-60
2023/08/16 04:20:26;;;;;;;0.20;0.20;;;;;;;-144.31;100.00;58022.63;5051115;28;20363;-61
2023/08/16 04:23:50;;;;;;;0.20;0.20;;;;;;;-144.31;100.00;58022.63;5048706;28;20249;-61
2023/08/16 04:27:15;;;;;;;0.20;0.20;;;;;;;-144.31;100.00;58022.63;5057173;28;20128;-60
2023/08/16 04:30:39;;;;;;;0.20;0.20;;;;;;;-144.31;100.00;58022.63;5052787;28;20140;-61
2023/08/16 04:34:03;;;;;;;0.13;0.13;;;;;;;-144.31;100.00;58022.63;5056301;28;20036;-61
2023/08/16 04:37:27;;;;;;;0.20;0.20;;;;;;;-144.31;100.00;58022.63;5058954;28;20051;-60
2023/08/16 04:40:51;;;;;;;0.20;0.20;;;;;;;-144.31;100.00;58022.63;5040970;28;20128;-60
2023/08/16 04:44:16;;;;;;;0.20;0.20;;;;;;;-144.31;100.00;58022.63;5049357;28;20282;-61
2023/08/16 04:47:40;;;;;;;0.20;0.20;;;;;;;-144.31;100.00;58022.63;5052027;28;20110;-60
2023/08/16 04:51:04;;;;;;;0.20;0.20;;;;;;;-144.31;100.00;58022.63;5053026;28;20060;-60
2023/08/16 04:54:28;;;;;;;0.20;0.20;;;;;;;-144.31;100.00;58022.63;5051305;28;20040;-60
2023/08/16 04:57:52;;;;;;;0.20;0.20;;;;;;;-144.31;100.00;58022.63;5057848;28;20235;-60
2023/08/16 05:01:18;;;;;;;0.20;0.20;;;;;;;-144.31;100.00;58022.63;5052788;28;20549;-60
2023/08/16 05:04:42;;;;;;;0.20;0.20;;;;;;;-144.31;100.00;58022.63;5057353;28;20124;-60
2023/08/16 05:08:06;;;;;;;0.20;0.20;;;;;;;-144.31;100.00;58022.63;5056236;28;20032;-60
2023/08/16 05:11:31;;;;;;;0.20;0.20;;;;;;;-144.31;100.00;58022.63;5048898;28;20421;-61
2023/08/16 05:14:55;;;;;;;0.20;0.20;;;;;;;-144.31;100.00;58022.63;5062597;28;20048;-62
2023/08/16 05:18:20;;;;;;;0.20;0.20;;;;;;;-144.31;100.00;58022.63;5062218;28;20040;-60
2023/08/16 05:21:44;;;;;;;0.20;0.20;;;;;;;-144.31;100.00;58022.63;5064084;28;20484;-61
2023/08/16 05:25:08;;;;;;;0.20;0.20;;;;;;;-144.31;100.00;58022.63;5061002;28;20091;-60
2023/08/16 05:28:32;;;;;;;0.20;0.20;;;;;;;-144.31;100.00;58022.63;5058508;28;20044;-61
2023/08/16 05:32:06;;;;;;;0.20;0.20;;;;;;;-144.31;100.00;58022.63;5058038;28;20033;-60
2023/08/16 05:35:33;;;;;;;0.20;0.20;;;;;;;-144.31;100.00;58022.63;5057021;28;20039;-60
2023/08/16 05:38:57;;;;;;;0.20;0.20;;;;;;;-144.31;100.00;58022.63;5059413;28;20086;-59
2023/08/16 05:42:21;;;;;;;0.20;0.20;;;;;;;-144.31;100.00;58022.63;5062092;28;20083;-60
2023/08/16 05:45:45;;;;;;;0.10;0.10;;;;;;;-144.31;100.00;58022.63;5052392;28;20037;-60
2023/08/16 05:49:09;;;;;;;0.10;0.10;;;;;;;-144.31;100.00;58022.63;5054220;28;20816;-59
2023/08/16 05:52:33;;;;;;;0.20;0.20;;;;;;;-144.31;100.00;58022.63;5055530;28;20037;-60
2023/08/16 05:55:57;;;;;;;0.10;0.10;;;;;;;-144.31;100.00;58022.63;5060243;28;20049;-59
2023/08/16 05:59:21;;;;;;;0.10;0.10;;;;;;;-144.31;100.00;58022.63;5054678;28;20047;-60
2023/08/16 06:02:45;;;;;;;0.10;0.10;;;;;;;-144.31;100.00;58022.63;5052815;28;20119;-61
2023/08/16 06:06:09;;;;;;;0.10;0.10;;;;;;;-144.31;100.00;58022.63;5054327;28;20390;-60
2023/08/16 06:09:33;;;;;;;0.10;0.10;;;;;;;-144.31;100.00;58022.63;5054932;28;20128;-60
2023/08/16 06:12:57;;;;;;;0.10;0.10;;;;;;;-144.31;100.00;58022.63;5054345;28;20036;-60
2023/08/16 06:16:21;;;;;;;0.10;0.10;;;;;;;-144.31;100.00;58022.63;5051593;28;20050;-60
2023/08/16 06:19:45;;;;;;;0.10;0.10;;;;;;;-144.31;100.00;58022.63;5052060;28;20201;-60
2023/08/16 06:23:10;;;;;;;0.10;0.10;;;;;;;-144.31;100.00;58022.63;5055742;28;20037;-59
2023/08/16 06:26:34;;;;;;;0.10;0.10;;;;;;;-144.31;100.00;58022.63;5051741;28;20048;-59
2023/08/16 06:29:58;;;;;;;0.10;0.10;;;;;;;-144.31;100.00;58022.63;5053286;28;20445;-62
2023/08/16 06:33:22;;;;;;;0.10;0.10;;;;;;;-144.31;100.00;58022.63;5053899;28;20058;-61
2023/08/16 06:36:46;;;;;;;0.10;0.10;;;;;;;-144.31;100.00;58022.63;5054008;28;20040;-62
2023/08/16 06:40:11;;;;;;;0.10;0.10;;;;;;;-144.31;100.00;58022.63;5061389;28;20496;-62
2023/08/16 06:43:35;;;;;;;0.10;0.10;;;;;;;-144.31;100.00;58022.63;5056712;28;20041;-61
2023/08/16 06:46:59;;;;;;;0.10;0.10;;;;;;;-144.31;100.00;58022.63;5054191;28;20033;-61
2023/08/16 06:50:23;;;;;;;0.00;0.00;;;;;;;-144.31;100.00;58022.63;5054136;28;20127;-60
2023/08/16 06:53:49;;;;;;;0.10;0.10;;;;;;;-144.31;100.00;58022.63;5056874;28;20351;-63
2023/08/16 06:57:13;;;;;;;0.00;0.00;;;;;;;-144.31;100.00;58022.63;5053088;28;20037;-61
2023/08/16 07:00:41;;;;;;;0.10;0.10;;;;;;;-144.31;100.00;58022.63;5052161;28;20434;-61
2023/08/16 07:04:05;;;;;;;0.00;0.00;;;;;;;-144.31;100.00;58022.63;5052002;28;20084;-60
2023/08/16 07:07:30;;;;;;;0.10;0.10;;;;;;;-144.31;100.00;58022.63;5053085;28;20041;-62
2023/08/16 07:10:54;;;;;;;0.05;0.05;;;;;;;-144.31;100.00;58022.63;5052610;28;20040;-61
2023/08/16 07:14:18;;;;;;;0.00;0.00;;;;;;;-144.31;100.00;58022.63;5052217;28;20072;-62
2023/08/16 07:17:42;;;;;;;0.00;0.00;;;;;;;-144.31;100.00;58022.63;5050551;28;20078;-63
2023/08/16 07:21:06;;;;;;;0.00;0.00;;;;;;;-144.31;100.00;58022.63;5051339;28;20059;-62
2023/08/16 07:24:30;;;;;;;0.00;0.00;;;;;;;-144.31;100.00;58022.63;5053721;28;20059;-61
2023/08/16 07:27:54;;;;;;;0.08;0.08;;;;;;;-144.31;100.00;58022.63;5053613;28;20618;-61
2023/08/16 07:31:18;;;;;;;0.00;0.00;;;;;;;-144.31;100.00;58022.63;5054202;28;20045;-61
2023/08/16 07:34:42;;;;;;;0.00;0.00;;;;;;;-144.31;100.00;58022.63;5053770;28;20047;-61
2023/08/16 07:38:06;;;;;;;0.10;0.10;;;;;;;-144.31;100.00;58022.63;5049442;28;20039;-62
2023/08/16 07:41:30;;;;;;;0.00;0.00;;;;;;;-144.31;100.00;58022.63;5050259;28;20029;-62
2023/08/16 07:44:54;;;;;;;0.00;0.00;;;;;;;-144.31;100.00;58022.63;5048866;28;20032;-61
2023/08/16 07:48:18;;;;;;;0.00;0.00;;;;;;;-144.31;100.00;58022.63;5050214;28;20081;-62
2023/08/16 07:51:42;;;;;;;0.00;0.00;;;;;;;-144.31;100.00;58022.63;5052477;28;20060;-64
2023/08/16 07:55:06;;;;;;;0.00;0.00;;;;;;;-144.31;100.00;58022.63;5051668;28;20039;-61
2023/08/16 07:58:30;;;;;;;0.00;0.00;;;;;;;-144.31;100.00;58022.63;5049640;28;20050;-62
2023/08/16 08:01:56;;;;;;;0.00;0.00;;;;;;;-144.31;100.00;58022.63;5049678;28;20068;-62
2023/08/16 08:05:20;;;;;;;0.00;0.00;;;;;;;-144.31;100.00;58022.63;5050987;28;20373;-62
2023/08/16 08:08:44;;;;;;;0.00;0.00;;;;;;;-144.31;100.00;58022.63;5051950;28;20105;-62
2023/08/16 08:12:08;;;;;;;0.00;0.00;;;;;;;-144.31;100.00;58022.63;5050137;28;20493;-61
2023/08/16 08:15:32;;;;;;;0.00;0.00;;;;;;;-144.31;100.00;58022.63;5053279;28;20090;-61
2023/08/16 08:18:56;;;;;;;0.00;0.00;;;;;;;-144.31;100.00;58022.63;5048985;28;20405;-62
2023/08/16 08:22:20;;;;;;;0.00;0.00;;;;;;;-144.31;100.00;58022.63;5049952;28;20109;-63
2023/08/16 08:25:44;;;;;;;0.00;0.00;;;;;;;-144.31;100.00;58022.63;5050583;28;20098;-62
2023/08/16 08:29:08;;;;;;;0.00;0.00;;;;;;;-144.31;100.00;58022.63;5051551;28;20106;-61
2023/08/16 08:32:33;;;;;;;0.00;0.00;;;;;;;-144.31;100.00;58022.63;5053025;28;20037;-62
2023/08/16 08:35:58;;;;;;;0.00;0.00;;;;;;;-144.31;100.00;58022.63;5049621;28;20041;-60
2023/08/16 08:39:22;;;;;;;0.00;0.00;;;;;;;-144.31;100.00;58022.63;5048630;28;20051;-63
2023/08/16 08:42:49;;;;;;;0.00;0.00;;;;;;;-144.31;100.00;58022.63;5052460;28;20048;-63
2023/08/16 08:46:13;;;;;;;0.00;0.00;;;;;;;-144.31;100.00;58022.63;5049598;28;20045;-63
2023/08/16 08:49:39;;;;;;;0.00;0.00;;;;;;;-144.31;100.00;58022.63;5060301;28;20442;-62
2023/08/16 08:53:03;;;;;;;;;;;;;;;-144.31;100.00;58022.63;5053869;28;20183;-65
2023/08/16 08:56:28;;;;;;;0.00;0.00;;;;;;;-144.31;100.00;58022.63;5055866;28;20651;-63
2023/08/16 08:59:55;;;;;;;0.00;0.00;;;;;;;-144.31;100.00;58022.63;5068600;28;20828;-63
2023/08/16 09:03:21;;;;;;;0.00;0.00;;;;;;;-144.31;100.00;58022.63;5057181;28;20098;-62
2023/08/16 09:06:51;;;;;;;0.00;0.00;;;;;;;-144.31;100.00;58022.63;5057874;28;20033;-62
2023/08/16 09:10:16;;;;;;;0.00;0.00;;;;;;;-144.31;100.00;58022.63;5054026;28;20033;-62
2023/08/16 09:13:40;;;;;;;0.00;0.00;;;;;;;-144.31;100.00;58022.63;5051563;28;20079;-62
2023/08/16 09:17:04;;;;;;;0.00;0.00;;;;;;;-144.31;100.00;58022.63;5055660;28;20137;-63
2023/08/16 09:20:28;;;;;;;0.00;0.00;;;;;;;-144.31;100.00;58022.63;5053798;28;20044;-62
2023/08/16 09:23:55;;;;;;;0.00;0.00;;;;;;;-144.31;100.00;58022.63;5061206;28;20385;-62
2023/08/16 09:27:22;;;;;;;0.00;0.00;;;;;;;-144.31;100.00;58022.63;5054090;28;20512;-61
2023/08/16 09:30:46;;;;;;;0.00;0.00;;;;;;;-144.31;100.00;58022.63;5052703;28;20044;-61
2023/08/16 09:34:19;;;;;;;0.00;0.00;;;;;;;-144.31;100.00;58022.63;5053173;28;20152;-62
2023/08/16 09:37:47;;;;;;;0.00;0.00;;;;;;;-144.31;100.00;58022.63;5053118;28;20442;-61
2023/08/16 09:41:18;;;;;;;0.00;0.00;;;;;;;-144.31;100.00;58022.63;5053409;28;20124;-62
2023/08/16 09:44:46;;;;;;;0.00;0.00;;;;;;;-144.31;100.00;58022.63;5053578;28;20178;-61
2023/08/16 09:48:11;;;;;;;0.00;0.00;;;;;;;-144.31;100.00;58022.63;5054513;28;20564;-62
2023/08/16 09:51:35;;;;;;;0.00;0.00;;;;;;;-144.31;100.00;58022.63;5053029;28;20048;-62
2023/08/16 09:55:01;;;;;;;0.00;0.00;;;;;;;-144.31;100.00;58022.63;5051192;28;20048;-61
2023/08/16 09:58:27;;;;;;;0.00;0.00;;;;;;;-144.31;100.00;58022.63;5052785;28;20497;-62
2023/08/16 10:01:51;;;;;;;0.00;0.00;;;;;;;-144.31;100.00;58022.63;5055426;28;20514;-62
2023/08/16 10:05:16;;;;;;;0.00;0.00;;;;;;;-144.31;100.00;58022.63;5054331;28;20040;-61
2023/08/16 10:08:40;;;;;;;0.00;0.00;;;;;;;-144.31;100.00;58022.63;5055012;28;20081;-62
2023/08/16 10:12:05;;;;;;;0.00;0.00;;;;;;;-144.31;100.00;58022.63;5052347;28;20125;-63
2023/08/16 10:15:32;;;;;;;0.00;0.00;;;;;;;-144.31;100.00;58022.63;5051412;28;20056;-62
2023/08/16 10:18:59;;;;;;;0.00;0.00;;;;;;;-144.31;100.00;58022.63;5054285;28;20999;-61
2023/08/16 10:22:27;;;;;;;0.00;0.00;;;;;;;-144.31;100.00;58022.63;5053047;28;20029;-61
2023/08/16 10:25:54;;;;;;;0.00;0.00;;;;;;;-144.31;100.00;58022.63;5051332;28;20191;-62
2023/08/16 10:29:22;;;;;;;0.00;0.00;;;;;;;-144.31;100.00;58022.63;5052760;28;20544;-61
2023/08/16 10:32:48;;;;;;;0.00;0.00;;;;;;;-144.31;100.00;58022.63;5052370;28;20135;-61
2023/08/16 10:36:13;;;;;;;0.00;0.00;;;;;;;-144.31;100.00;58022.63;5050862;28;20044;-62
2023/08/16 10:39:38;;;;;;;0.00;0.00;;;;;;;-144.31;100.00;58022.63;5054935;28;20041;-61
2023/08/16 10:43:05;;;;;;;;;;;;;;;-144.31;100.00;58022.63;5056629;28;20039;-62
2023/08/16 10:46:33;;;;;;;0.00;0.00;;;;;;;-144.31;100.00;58022.63;5053738;28;19916;-61
2023/08/16 10:50:01;;;;;;;0.00;0.00;;;;;;;-144.31;100.00;58022.63;5052982;28;20052;-62
2023/08/16 10:53:27;;;;;;;0.00;0.00;;;;;;;-144.31;100.00;58022.63;5053234;28;20461;-62
2023/08/16 10:56:51;;;;;;;0.00;0.00;;;;;;;-144.31;100.00;58022.63;5053051;28;20033;-62
2023/08/16 11:00:16;;;;;;;0.00;0.00;;;;;;;-144.31;100.00;58022.63;5054444;28;20040;-63
2023/08/16 11:03:41;;;;;;;0.00;0.00;;;;;;;-144.31;100.00;58022.63;5053252;28;20492;-62
2023/08/16 11:07:09;;;;;;;0.00;0.00;;;;;;;-144.31;100.00;58022.63;5052592;28;20093;-62
2023/08/16 11:10:37;;;;;;;0.00;0.00;;;;;;;-144.31;100.00;58022.63;5069764;28;20053;-63
2023/08/16 11:14:10;;;;;;;0.00;0.00;;;;;;;-144.31;100.00;58022.63;5055592;28;20043;-63
2023/08/16 11:17:34;;;;;;;0.00;0.00;;;;;;;-144.31;100.00;58022.63;5052209;28;20040;-62
2023/08/16 11:20:59;;;;;;;0.00;0.00;;;;;;;-144.31;100.00;58022.63;5053709;28;20040;-61
2023/08/16 11:24:36;;;;;;;0.00;0.00;;;;;;;-144.31;100.00;58022.63;5053191;28;20436;-61
2023/08/16 11:28:04;;;;;;;0.00;0.00;;;;;;;-144.31;100.00;58022.63;5052692;28;20335;-63
2023/08/16 11:31:29;;;;;;;0.00;0.00;;;;;;;-144.31;100.00;58022.63;5059795;28;20037;-61
2023/08/16 11:34:53;;;;;;;0.00;0.00;;;;;;;-144.31;100.00;58022.63;5051745;28;20087;-62
2023/08/16 11:38:17;;;;;;;0.00;0.00;;;;;;;-144.31;100.00;58022.63;5041948;28;20040;-62
2023/08/16 11:41:44;;;;;;;0.00;0.00;;;;;;;-144.31;100.00;58022.63;5042606;28;20032;-62
2023/08/16 11:45:26;;;;;;;0.00;0.00;;;;;;;-144.31;100.00;58022.63;5055052;28;20082;-62
2023/08/16 11:48:50;;;;;;;0.00;0.00;;;;;;;-144.31;100.00;58022.63;5054379;28;20490;-62
2023/08/16 11:52:19;;;;;;;0.00;0.00;;;;;;;-144.31;100.00;58022.63;5053843;28;20073;-63
2023/08/16 11:55:55;;;;;;;0.00;0.00;;;;;;;-144.31;100.00;58022.63;5066396;28;20033;-63
2023/08/16 11:59:25;;;;;;;0.00;0.00;;;;;;;-144.31;100.00;58022.63;5056835;28;20059;-63
2023/08/16 12:02:49;;;;;;;0.00;0.00;;;;;;;-144.31;100.00;58022.63;5051497;28;20033;-62
2023/08/16 12:06:13;;;;;;;0.00;0.00;;;;;;;-144.31;100.00;58022.63;5054749;28;20676;-63
2023/08/16 12:09:49;;;;;;;0.00;0.00;;;;;;;-144.31;100.00;58022.63;5052083;28;20072;-62
2023/08/16 12:13:14;;;;;;;0.00;0.00;;;;;;;-144.31;100.00;58022.63;5050934;28;20033;-62
2023/08/16 12:16:38;;;;;;;0.00;0.00;;;;;;;-144.31;100.00;58022.63;5053575;28;20041;-62
2023/08/16 12:20:03;;;;;;;0.00;0.00;;;;;;;-144.31;100.00;58022.63;5051851;28;20128;-63
2023/08/16 12:23:27;;;;;;;0.00;0.00;;;;;;;-144.31;100.00;58022.63;5054833;28;20072;-64
2023/08/16 12:26:50;;;;;;;0.00;0.00;;;;;;;-144.31;100.00;58022.63;5054499;28;20525;-63
2023/08/16 12:30:14;;;;;;;0.00;0.00;;;;;;;-144.31;100.00;58022.63;5055673;28;20028;-62
2023/08/16 12:33:40;;;;;;;0.00;0.00;;;;;;;-144.31;100.00;58022.63;5057724;28;20059;-63
2023/08/16 12:37:07;;;;;;;0.00;0.00;;;;;;;-144.31;100.00;58022.63;5056073;28;20048;-63
2023/08/16 12:40:31;;;;;;;0.00;0.00;;;;;;;-144.31;100.00;58022.63;5053941;28;20114;-63
2023/08/16 12:43:55;;;;;;;0.00;0.00;;;;;;;-144.31;100.00;58022.63;5055853;28;20036;-63
2023/08/16 12:47:19;;;;;;;0.00;0.00;;;;;;;-144.31;100.00;58022.63;5053987;28;20064;-62
2023/08/16 12:50:42;;;;;;;0.00;0.00;;;;;;;-144.31;100.00;58022.63;5062924;28;20044;-63
2023/08/16 12:54:06;;;;;;;0.00;0.00;;;;;;;-144.31;100.00;58022.63;5052268;28;20037;-63
2023/08/16 12:57:31;;;;;;;0.00;0.00;;;;;;;-144.31;100.00;58022.63;5055011;28;20128;-63
2023/08/16 13:00:56;;;;;;;0.00;0.00;;;;;;;-144.31;100.00;58022.63;5056424;28;20927;-62
2023/08/16 13:04:20;;;;;;;0.00;0.00;;;;;;;-144.31;100.00;58022.63;5058368;28;21642;-63
2023/08/16 13:07:44;;;;;;;0.00;0.00;;;;;;;-144.31;100.00;58022.63;5056929;28;20040;-62
2023/08/16 13:11:08;;;;;;;0.00;0.00;;;;;;;-144.31;100.00;58022.63;5055945;28;20036;-63
2023/08/16 13:14:35;;;;;;;0.00;0.00;;;;;;;-144.31;100.00;58022.63;5057551;28;20043;-64
2023/08/16 13:17:59;;;;;;;0.00;0.00;;;;;;;-144.31;100.00;58022.63;5058793;28;20537;-64
2023/08/16 13:21:23;;;;;;;0.00;0.00;;;;;;;-144.31;100.00;58022.63;5056880;28;20047;-63
2023/08/16 13:24:50;;;;;;;0.00;0.00;;;;;;;-144.31;100.00;58022.63;5054034;28;20116;-63
2023/08/16 13:28:15;;;;;;;0.00;0.00;;;;;;;-144.31;100.00;58022.63;5054281;28;20052;-63
2023/08/16 13:31:39;;;;;;;0.00;0.00;;;;;;;-144.31;100.00;58022.63;5057800;28;20041;-63
2023/08/16 13:35:03;;;;;;;0.00;0.00;;;;;;;-144.31;100.00;58022.63;5061235;28;20785;-63
2023/08/16 13:38:27;;;;;;;0.00;0.00;;;;;;;-144.31;100.00;58022.63;5052132;28;20493;-63
2023/08/16 13:41:51;;;;;;;0.00;0.00;;;;;;;-144.31;100.00;58022.63;5056181;28;20071;-63
2023/08/16 13:45:15;;;;;;;0.00;0.00;;;;;;;-144.31;100.00;58022.63;5053490;28;20470;-62
2023/08/16 13:48:40;;;;;;;0.00;0.00;;;;;;;-144.31;100.00;58022.63;5055709;28;20024;-63
2023/08/16 13:52:04;;;;;;;0.00;0.00;;;;;;;-144.31;100.00;58022.63;5057910;28;20048;-63
2023/08/16 13:55:29;;;;;;;0.00;0.00;;;;;;;-144.31;100.00;58022.63;5061576;28;20064;-63
2023/08/16 13:58:53;;;;;;;0.00;0.00;;;;;;;-144.31;100.00;58022.63;5054137;28;21014;-63
2023/08/16 14:02:18;;;;;;;0.00;0.00;;;;;;;-144.31;100.00;58022.63;5054294;28;20048;-64
2023/08/16 14:05:42;;;;;;;0.00;0.00;;;;;;;-144.31;100.00;58022.63;5057454;28;20029;-64
2023/08/16 14:09:06;;;;;;;0.00;0.00;;;;;;;-144.31;100.00;58022.63;5053167;28;20063;-63
2023/08/16 14:12:30;;;;;;;0.00;0.00;;;;;;;-144.31;100.00;58022.63;5055611;28;20421;-63
2023/08/16 14:15:59;;;;;;;0.00;0.00;;;;;;;-144.31;100.00;58022.63;5052796;28;20041;-63
2023/08/16 14:19:25;;;;;;;0.00;0.00;;;;;;;-144.31;100.00;58022.63;5048914;28;20036;-63
2023/08/16 14:22:49;;;;;;;0.00;0.00;;;;;;;-144.31;100.00;58022.63;5045642;28;20633;-65
2023/08/16 14:26:15;;;;;;;0.00;0.00;;;;;;;-144.31;100.00;58022.63;5043257;28;20131;-63
2023/08/16 14:29:39;;;;;;;0.00;0.00;;;;;;;-144.31;100.00;58022.63;5043433;28;20340;-63
2023/08/16 14:33:03;;;;;;;0.00;0.00;;;;;;;-144.31;100.00;58022.63;5054227;28;20106;-64
2023/08/16 14:36:27;;;;;;;0.00;0.00;;;;;;;-144.31;100.00;58022.63;5050897;28;20040;-62
2023/08/16 14:39:51;;;;;;;0.00;0.00;;;;;;;-144.31;100.00;58022.63;5049550;28;20094;-63
2023/08/16 14:43:15;;;;;;;0.00;0.00;;;;;;;-144.31;100.00;58022.63;5055603;28;20040;-63
2023/08/16 14:46:39;;;;;;;0.00;0.00;;;;;;;-144.31;100.00;58022.63;5050544;28;20040;-63
2023/08/16 14:50:03;;;;;;;0.00;0.00;;;;;;;-144.31;100.00;58022.63;5054494;28;20037;-62
2023/08/16 14:53:27;;;;;;;0.00;0.00;;;;;;;-144.31;100.00;58022.63;5051060;28;20032;-63
2023/08/16 14:56:51;;;;;;;;;;;;;;;-144.31;100.00;58022.63;5044280;28;20055;-63
2023/08/16 15:00:15;;;;;;;0.00;0.00;;;;;;;-144.31;100.00;58022.63;5044440;28;19921;-63
2023/08/16 15:03:42;;;;;;;0.00;0.00;;;;;;;-144.31;100.00;58022.63;5050653;28;20449;-62
2023/08/16 15:07:06;;;;;;;0.00;0.00;;;;;;;-144.31;100.00;58022.63;5047261;28;20055;-63
2023/08/16 15:10:30;;;;;;;0.00;0.00;;;;;;;-144.31;100.00;58022.63;5048416;28;20588;-62
2023/08/16 15:13:54;;;;;;;0.00;0.00;;;;;;;-144.31;100.00;58022.63;5054476;28;20028;-62
2023/08/16 15:17:19;;;;;;;0.00;0.00;;;;;;;-144.31;100.00;58022.63;5054027;28;20037;-62
2023/08/16 15:20:46;;;;;;;0.00;0.00;;;;;;;-144.31;100.00;58022.63;5055507;28;20037;-63
2023/08/16 15:24:11;;;;;;;0.00;0.00;;;;;;;-144.31;100.00;58022.63;5047740;28;20044;-64
2023/08/16 15:27:35;;;;;;;0.00;0.00;;;;;;;-144.31;100.00;58022.63;5046262;28;20059;-63
2023/08/16 15:30:59;;;;;;;0.00;0.00;;;;;;;-144.31;100.00;58022.63;5045427;28;20099;-63